createdAt,value
2023-03-13T00:01:40.935Z,62.10
2023-03-13T00:04:09.041Z,62.10
2023-03-13T00:06:38.513Z,62.20
2023-03-13T00:09:08.485Z,62.20
2023-03-13T00:11:36.919Z,62.20
2023-03-13T00:14:07.062Z,62.30
2023-03-13T00:16:37.231Z,62.20
2023-03-13T00:19:06.470Z,62.20
2023-03-13T00:21:34.593Z,62.30
2023-03-13T00:24:02.666Z,62.20
2023-03-13T00:26:31.133Z,62.30
2023-03-13T00:28:59.503Z,62.10
2023-03-13T00:31:30.263Z,62.30
2023-03-13T00:34:00.380Z,62.30
2023-03-13T00:36:29.928Z,62.20
2023-03-13T00:38:58.532Z,62.20
2023-03-13T00:41:28.216Z,62.20
2023-03-13T00:43:56.474Z,62.30
2023-03-13T00:46:26.491Z,62.20
2023-03-13T00:48:56.283Z,62.20
2023-03-13T00:51:26.702Z,62.20
2023-03-13T00:53:54.867Z,62.20
2023-03-13T00:56:23.470Z,62.20
2023-03-13T00:58:51.467Z,62.20
2023-03-13T01:01:21.018Z,62.20
2023-03-13T01:03:51.399Z,62.20
2023-03-13T01:06:23.597Z,62.20
2023-03-13T01:08:51.860Z,62.20
2023-03-13T01:11:21.520Z,62.20
2023-03-13T01:13:50.344Z,62.20
2023-03-13T01:16:21.873Z,62.20
2023-03-13T01:18:52.215Z,62.30
2023-03-13T01:21:23.016Z,62.20
2023-03-13T01:23:52.561Z,62.30
2023-03-13T01:26:21.087Z,62.20
2023-03-13T01:28:48.893Z,62.20
2023-03-13T01:31:19.959Z,62.30
2023-03-13T01:33:49.717Z,62.20
2023-03-13T01:36:18.851Z,62.20
2023-03-13T01:38:51.255Z,62.20
2023-03-13T01:41:20.309Z,62.20
2023-03-13T01:43:48.592Z,62.20
2023-03-13T01:46:19.740Z,62.20
2023-03-13T01:49:18.578Z,62.20
2023-03-13T01:52:02.393Z,62.20
2023-03-13T01:54:37.297Z,62.30
2023-03-13T01:57:09.437Z,62.30
2023-03-13T01:59:43.349Z,62.20
2023-03-13T02:02:13.029Z,62.30
2023-03-13T02:04:45.923Z,62.30
2023-03-13T02:07:19.142Z,62.30
2023-03-13T02:09:52.892Z,62.30
2023-03-13T02:12:27.990Z,62.30
2023-03-13T02:14:58.159Z,62.30
2023-03-13T02:17:26.686Z,62.30
2023-03-13T02:19:54.590Z,62.30
2023-03-13T02:22:30.247Z,62.30
2023-03-13T02:25:07.497Z,62.30
2023-03-13T02:27:37.174Z,62.40
2023-03-13T02:30:07.627Z,62.40
2023-03-13T02:32:35.473Z,62.40
2023-03-13T02:35:08.332Z,62.40
2023-03-13T02:37:37.696Z,62.50
2023-03-13T02:40:11.615Z,62.50
2023-03-13T02:42:44.338Z,62.50
2023-03-13T02:45:15.592Z,62.50
2023-03-13T02:47:44.717Z,62.50
2023-03-13T02:50:14.640Z,62.50
2023-03-13T02:52:46.153Z,62.60
2023-03-13T02:55:17.974Z,62.60
2023-03-13T02:57:47.423Z,62.50
2023-03-13T03:00:17.117Z,62.50
2023-03-13T03:02:45.717Z,62.60
2023-03-13T03:05:15.464Z,62.60
2023-03-13T03:07:43.193Z,62.60
2023-03-13T03:10:12.068Z,62.40
2023-03-13T03:12:41.654Z,62.40
2023-03-13T03:15:12.028Z,62.40
2023-03-13T03:17:44.322Z,62.50
2023-03-13T03:20:12.827Z,62.50
2023-03-13T03:22:43.646Z,62.40
2023-03-13T03:25:11.572Z,62.50
2023-03-13T03:27:39.262Z,62.50
2023-03-13T03:30:11.862Z,62.50
2023-03-13T03:32:40.646Z,62.50
2023-03-13T03:35:09.062Z,62.50
2023-03-13T03:37:36.904Z,62.50
2023-03-13T03:40:06.953Z,62.50
2023-03-13T03:42:34.800Z,62.50
2023-03-13T03:45:03.100Z,62.60
2023-03-13T03:47:33.118Z,62.50
2023-03-13T03:50:03.488Z,62.50
2023-03-13T03:52:36.544Z,62.50
2023-03-13T03:55:04.596Z,62.50
2023-03-13T03:57:32.820Z,62.70
2023-03-13T04:00:00.846Z,62.50
2023-03-13T04:02:28.725Z,62.50
2023-03-13T04:04:57.817Z,62.50
2023-03-13T04:07:32.055Z,62.50
2023-03-13T04:10:00.408Z,62.50
2023-03-13T04:12:35.877Z,62.60
2023-03-13T04:15:03.830Z,62.70
2023-03-13T04:17:31.573Z,62.70
2023-03-13T04:20:01.810Z,62.70
2023-03-13T04:22:31.459Z,62.70
2023-03-13T04:24:59.595Z,62.70
2023-03-13T04:27:29.948Z,62.70
2023-03-13T04:29:57.683Z,62.70
2023-03-13T04:32:52.376Z,62.70
2023-03-13T04:35:35.476Z,62.70
2023-03-13T04:38:06.126Z,62.70
2023-03-13T04:40:48.825Z,62.70
2023-03-13T04:43:31.284Z,62.70
2023-03-13T04:46:18.469Z,62.70
2023-03-13T04:49:08.914Z,62.60
2023-03-13T04:51:47.062Z,62.70
2023-03-13T04:54:26.448Z,62.70
2023-03-13T04:57:00.714Z,62.80
2023-03-13T04:59:57.744Z,62.80
2023-03-13T05:02:44.565Z,62.70
2023-03-13T05:05:26.706Z,62.70
2023-03-13T05:08:23.127Z,62.70
2023-03-13T05:11:18.386Z,62.70
2023-03-13T05:14:09.260Z,62.70
2023-03-13T05:16:45.793Z,62.70
2023-03-13T05:19:52.054Z,62.80
2023-03-13T05:22:37.498Z,62.70
2023-03-13T05:25:18.391Z,62.80
2023-03-13T05:28:05.240Z,62.60
2023-03-13T05:30:47.273Z,62.70
2023-03-13T05:33:33.860Z,62.80
2023-03-13T05:36:21.581Z,62.80
2023-03-13T05:39:00.735Z,62.60
2023-03-13T05:41:52.940Z,62.60
2023-03-13T05:44:31.673Z,62.70
2023-03-13T05:47:05.295Z,62.70
2023-03-13T05:49:41.762Z,62.80
2023-03-13T05:52:32.468Z,62.70
2023-03-13T05:55:11.652Z,62.70
2023-03-13T05:57:59.487Z,62.70
2023-03-13T06:00:44.476Z,62.70
2023-03-13T06:03:41.316Z,62.80
2023-03-13T06:06:10.924Z,62.80
2023-03-13T06:08:45.171Z,62.90
2023-03-13T06:11:12.956Z,63.10
2023-03-13T06:13:42.261Z,63.80
2023-03-13T06:16:23.695Z,64.60
2023-03-13T06:18:51.767Z,64.90
2023-03-13T06:21:19.464Z,65.10
2023-03-13T06:23:47.241Z,65.30
2023-03-13T06:26:14.936Z,65.50
2023-03-13T06:28:44.077Z,65.70
2023-03-13T06:31:11.822Z,65.90
2023-03-13T06:33:39.547Z,65.90
2023-03-13T06:36:08.027Z,66.00
2023-03-13T06:38:35.775Z,66.10
2023-03-13T06:41:03.456Z,66.10
2023-03-13T06:43:31.314Z,66.10
2023-03-13T06:46:04.901Z,66.20
2023-03-13T06:48:32.624Z,66.10
2023-03-13T06:51:00.366Z,66.00
2023-03-13T06:53:28.047Z,66.10
2023-03-13T06:55:55.739Z,66.10
2023-03-13T06:58:32.138Z,66.10
2023-03-13T07:01:06.957Z,66.00
2023-03-13T07:03:34.833Z,65.90
2023-03-13T07:06:02.597Z,65.90
2023-03-13T07:08:30.580Z,65.90
2023-03-13T07:11:00.812Z,65.80
2023-03-13T07:13:29.004Z,65.80
2023-03-13T07:15:57.217Z,65.70
2023-03-13T07:18:26.407Z,65.70
2023-03-13T07:20:55.871Z,65.70
2023-03-13T07:23:23.825Z,65.70
2023-03-13T07:25:55.701Z,65.70
2023-03-13T07:28:23.485Z,65.60
2023-03-13T07:30:51.396Z,65.60
2023-03-13T07:33:19.788Z,65.60
2023-03-13T07:35:52.835Z,65.50
2023-03-13T07:38:21.172Z,65.50
2023-03-13T07:40:50.217Z,65.50
2023-03-13T07:43:18.154Z,65.40
2023-03-13T07:45:53.587Z,65.40
2023-03-13T07:48:22.346Z,65.50
2023-03-13T07:50:51.575Z,65.40
2023-03-13T07:53:22.091Z,65.40
2023-03-13T07:55:54.515Z,65.40
2023-03-13T07:58:22.341Z,65.40
2023-03-13T08:00:50.060Z,65.40
2023-03-13T08:03:17.851Z,65.40
2023-03-13T08:05:45.669Z,65.30
2023-03-13T08:08:14.842Z,65.40
2023-03-13T08:10:42.544Z,65.40
2023-03-13T08:13:10.292Z,65.40
2023-03-13T08:15:37.984Z,65.40
2023-03-13T08:18:05.898Z,65.40
2023-03-13T08:20:33.602Z,65.30
2023-03-13T08:23:01.378Z,65.30
2023-03-13T08:25:30.401Z,65.30
2023-03-13T08:27:58.334Z,65.40
2023-03-13T08:30:26.080Z,65.30
2023-03-13T08:32:53.911Z,65.30
2023-03-13T08:35:21.824Z,65.30
2023-03-13T08:37:49.602Z,65.20
2023-03-13T08:40:17.452Z,65.30
2023-03-13T08:42:46.468Z,65.30
2023-03-13T08:45:14.346Z,65.40
2023-03-13T08:47:42.017Z,65.40
2023-03-13T08:50:10.700Z,65.40
2023-03-13T08:52:38.407Z,65.40
2023-03-13T08:55:07.197Z,65.40
2023-03-13T08:57:34.909Z,65.40
2023-03-13T09:00:04.574Z,65.40
2023-03-13T09:02:32.325Z,65.40
2023-03-13T09:05:00.059Z,65.40
2023-03-13T09:07:27.782Z,65.40
2023-03-13T09:09:55.500Z,65.40
2023-03-13T09:12:30.685Z,65.40
2023-03-13T09:14:58.999Z,65.40
2023-03-13T09:17:28.026Z,65.30
2023-03-13T09:20:00.586Z,65.30
2023-03-13T09:22:28.758Z,65.30
2023-03-13T09:24:56.487Z,65.30
2023-03-13T09:27:24.292Z,65.30
2023-03-13T09:29:52.309Z,65.40
2023-03-13T09:32:20.435Z,65.40
2023-03-13T09:34:49.745Z,65.40
2023-03-13T09:37:17.645Z,65.30
2023-03-13T09:39:45.385Z,65.40
2023-03-13T09:42:17.417Z,65.30
2023-03-13T09:44:49.575Z,65.30
2023-03-13T09:47:24.287Z,65.40
2023-03-13T09:49:57.845Z,65.40
2023-03-13T09:52:27.407Z,65.40
2023-03-13T09:55:00.133Z,65.30
2023-03-13T09:57:34.351Z,65.40
2023-03-13T10:00:07.198Z,65.40
2023-03-13T10:02:36.838Z,65.40
2023-03-13T10:05:11.482Z,65.40
2023-03-13T10:07:39.190Z,65.50
2023-03-13T10:10:14.209Z,65.50
2023-03-13T10:12:45.472Z,65.50
2023-03-13T10:15:44.713Z,65.60
2023-03-13T10:18:17.272Z,65.60
2023-03-13T10:20:48.088Z,65.60
2023-03-13T10:23:20.973Z,65.60
2023-03-13T10:25:48.837Z,65.60
2023-03-13T10:28:19.252Z,65.60
2023-03-13T10:30:52.082Z,65.70
2023-03-13T10:33:23.345Z,65.70
2023-03-13T10:36:04.899Z,65.70
2023-03-13T10:38:36.607Z,66.50
2023-03-13T10:41:11.462Z,65.70
2023-03-13T10:43:51.447Z,65.80
2023-03-13T10:46:26.304Z,65.90
2023-03-13T10:48:56.521Z,65.80
2023-03-13T10:51:33.535Z,65.90
2023-03-13T10:54:01.216Z,65.90
2023-03-13T10:56:31.426Z,65.90
2023-03-13T10:58:59.139Z,65.90
2023-03-13T11:01:28.929Z,65.90
2023-03-13T11:04:00.252Z,66.00
2023-03-13T11:06:31.808Z,66.00
2023-03-13T11:09:04.405Z,66.10
2023-03-13T11:11:33.417Z,66.10
2023-03-13T11:14:14.141Z,66.10
2023-03-13T11:16:50.148Z,66.20
2023-03-13T11:19:32.812Z,66.20
2023-03-13T11:22:15.966Z,66.40
2023-03-13T11:24:47.733Z,66.70
2023-03-13T11:27:21.922Z,67.20
2023-03-13T11:29:58.506Z,67.80
2023-03-13T11:32:33.612Z,68.60
2023-03-13T11:35:04.974Z,69.00
2023-03-13T11:37:36.559Z,69.50
2023-03-13T11:40:13.446Z,70.00
2023-03-13T11:43:08.837Z,70.50
2023-03-13T11:45:53.610Z,70.70
2023-03-13T11:48:46.765Z,70.90
2023-03-13T11:51:20.902Z,71.00
2023-03-13T11:54:12.361Z,71.10
2023-03-13T11:56:44.876Z,71.30
2023-03-13T11:59:31.230Z,71.30
2023-03-13T12:02:04.859Z,71.30
2023-03-13T12:04:37.777Z,71.20
2023-03-13T12:07:11.577Z,70.80
2023-03-13T12:09:45.468Z,70.70
2023-03-13T12:12:21.876Z,70.50
2023-03-13T12:14:56.782Z,70.30
2023-03-13T12:17:32.693Z,70.20
2023-03-13T12:20:07.896Z,70.20
2023-03-13T12:22:39.579Z,70.00
2023-03-13T12:25:15.849Z,70.00
2023-03-13T12:27:47.257Z,69.80
2023-03-13T12:30:24.238Z,69.70
2023-03-13T12:33:00.817Z,69.70
2023-03-13T12:35:30.510Z,69.80
2023-03-13T12:38:04.180Z,69.70
2023-03-13T12:40:39.077Z,69.60
2023-03-13T12:43:12.111Z,69.70
2023-03-13T12:45:56.157Z,69.60
2023-03-13T12:48:50.347Z,69.50
2023-03-13T12:51:31.294Z,69.50
2023-03-13T12:54:34.179Z,69.40
2023-03-13T12:57:18.078Z,69.40
2023-03-13T12:59:49.091Z,69.30
2023-03-13T13:02:20.527Z,69.20
2023-03-13T13:04:50.749Z,69.20
2023-03-13T13:07:26.636Z,69.10
2023-03-13T13:10:05.657Z,69.10
2023-03-13T13:12:34.689Z,69.10
2023-03-13T13:15:12.367Z,69.00
2023-03-13T13:18:03.442Z,69.00
2023-03-13T13:20:46.030Z,68.90
2023-03-13T13:23:34.665Z,68.90
2023-03-13T13:26:48.430Z,68.90
2023-03-13T13:29:58.794Z,68.90
2023-03-13T13:32:45.726Z,68.80
2023-03-13T13:35:28.601Z,68.90
2023-03-13T13:38:36.402Z,68.80
2023-03-13T13:41:23.008Z,68.80
2023-03-13T13:44:11.696Z,68.70
2023-03-13T13:46:45.980Z,68.60
2023-03-13T13:49:19.535Z,68.60
2023-03-13T13:52:24.031Z,68.60
2023-03-13T13:54:58.303Z,68.60
2023-03-13T13:57:28.278Z,68.60
2023-03-13T14:00:01.265Z,68.60
2023-03-13T14:02:49.963Z,68.60
2023-03-13T14:05:20.910Z,68.60
2023-03-13T14:07:54.998Z,68.60
2023-03-13T14:10:34.673Z,68.60
2023-03-13T14:13:05.414Z,68.60
2023-03-13T14:15:35.350Z,68.50
2023-03-13T14:18:14.124Z,68.70
2023-03-13T14:20:52.520Z,68.60
2023-03-13T14:23:35.399Z,68.50
2023-03-13T14:26:12.028Z,68.50
2023-03-13T14:28:43.182Z,68.50
2023-03-13T14:31:12.162Z,68.50
2023-03-13T14:33:41.324Z,68.50
2023-03-13T14:36:09.968Z,68.50
2023-03-13T14:38:38.068Z,68.40
2023-03-13T14:41:05.926Z,68.40
2023-03-13T14:43:36.646Z,68.40
2023-03-13T14:46:15.695Z,68.30
2023-03-13T14:48:44.962Z,68.30
2023-03-13T14:51:20.019Z,68.30
2023-03-13T14:53:58.838Z,68.30
2023-03-13T14:56:34.623Z,68.30
2023-03-13T14:59:15.240Z,68.20
2023-03-13T15:01:43.010Z,68.20
2023-03-13T15:04:12.060Z,68.30
2023-03-13T15:06:39.929Z,68.30
2023-03-13T15:09:22.881Z,68.30
2023-03-13T15:11:56.254Z,68.30
2023-03-13T15:14:39.202Z,68.30
2023-03-13T15:17:15.137Z,68.30
2023-03-13T15:19:48.292Z,68.30
2023-03-13T15:22:17.300Z,68.30
2023-03-13T15:24:59.585Z,68.30
2023-03-13T15:27:32.573Z,68.30
2023-03-13T15:30:00.292Z,68.30
2023-03-13T15:32:31.281Z,68.30
2023-03-13T15:35:01.688Z,68.20
2023-03-13T15:37:30.879Z,68.30
2023-03-13T15:39:58.935Z,68.40
2023-03-13T15:42:26.787Z,68.50
2023-03-13T15:44:54.516Z,68.60
2023-03-13T15:47:23.393Z,68.70
2023-03-13T15:49:51.149Z,68.80
2023-03-13T15:52:22.708Z,68.90
2023-03-13T15:54:51.684Z,69.00
2023-03-13T15:57:22.841Z,69.00
2023-03-13T15:59:51.001Z,69.10
2023-03-13T16:02:21.429Z,69.10
2023-03-13T16:04:50.098Z,69.20
2023-03-13T16:07:21.189Z,69.20
2023-03-13T16:09:49.500Z,69.20
2023-03-13T16:12:17.376Z,69.30
2023-03-13T16:14:45.095Z,69.30
2023-03-13T16:17:16.028Z,69.40
2023-03-13T16:19:43.980Z,69.30
2023-03-13T16:22:11.898Z,69.30
2023-03-13T16:24:41.319Z,69.30
2023-03-13T16:27:15.180Z,69.40
2023-03-13T16:29:43.045Z,69.40
2023-03-13T16:32:12.898Z,69.40
2023-03-13T16:34:40.709Z,69.40
2023-03-13T16:37:13.746Z,69.40
2023-03-13T16:39:43.510Z,69.40
2023-03-13T16:42:11.352Z,69.40
2023-03-13T16:44:39.545Z,69.40
2023-03-13T16:47:16.879Z,69.40
2023-03-13T16:49:47.020Z,69.40
2023-03-13T16:52:16.104Z,69.40
2023-03-13T16:54:46.134Z,69.40
2023-03-13T16:57:15.861Z,69.40
2023-03-13T16:59:43.623Z,69.50
2023-03-13T17:02:15.995Z,69.50
2023-03-13T17:04:45.004Z,69.40
2023-03-13T17:07:19.549Z,69.50
2023-03-13T17:09:48.799Z,69.40
2023-03-13T17:12:16.964Z,69.30
2023-03-13T17:14:44.944Z,69.30
2023-03-13T17:17:15.363Z,69.40
2023-03-13T17:19:43.193Z,69.40
2023-03-13T17:22:13.264Z,69.80
2023-03-13T17:24:41.289Z,69.30
2023-03-13T17:27:13.482Z,69.30
2023-03-13T17:29:41.786Z,69.30
2023-03-13T17:32:11.337Z,69.30
2023-03-13T17:34:39.363Z,69.30
2023-03-13T17:37:16.964Z,69.20
2023-03-13T17:39:45.098Z,69.20
2023-03-13T17:42:14.703Z,69.20
2023-03-13T17:44:42.433Z,69.30
2023-03-13T17:47:18.241Z,69.30
2023-03-13T17:49:46.154Z,69.30
2023-03-13T17:52:15.588Z,69.40
2023-03-13T17:54:44.421Z,69.50
2023-03-13T17:57:17.041Z,69.60
2023-03-13T17:59:46.150Z,69.60
2023-03-13T18:02:15.910Z,69.50
2023-03-13T18:04:44.838Z,69.50
2023-03-13T18:07:17.831Z,69.50
2023-03-13T18:09:47.437Z,69.50
2023-03-13T18:12:17.142Z,69.40
2023-03-13T18:14:45.132Z,70.20
2023-03-13T18:17:18.854Z,69.40
2023-03-13T18:19:47.156Z,69.50
2023-03-13T18:22:17.386Z,69.40
2023-03-13T18:24:45.862Z,69.40
2023-03-13T18:27:16.368Z,69.40
2023-03-13T18:29:44.765Z,69.40
2023-03-13T18:32:14.514Z,69.40
2023-03-13T18:34:43.001Z,69.40
2023-03-13T18:37:20.818Z,69.40
2023-03-13T18:39:49.839Z,70.20
2023-03-13T18:42:19.453Z,69.40
2023-03-13T18:44:47.296Z,69.60
2023-03-13T18:47:17.787Z,69.60
2023-03-13T18:49:46.792Z,69.40
2023-03-13T18:52:14.560Z,69.50
2023-03-13T18:54:42.338Z,69.50
2023-03-13T18:57:13.532Z,69.60
2023-03-13T18:59:43.568Z,69.60
2023-03-13T19:02:14.724Z,69.60
2023-03-13T19:04:42.926Z,69.70
2023-03-13T19:07:16.078Z,69.80
2023-03-13T19:09:46.318Z,69.70
2023-03-13T19:12:15.357Z,69.80
2023-03-13T19:14:44.450Z,69.80
2023-03-13T19:17:17.722Z,70.60
2023-03-13T19:19:45.458Z,69.80
2023-03-13T19:22:14.462Z,69.80
2023-03-13T19:24:42.227Z,69.80
2023-03-13T19:27:16.628Z,69.90
2023-03-13T19:29:46.164Z,69.80
2023-03-13T19:32:15.615Z,69.90
2023-03-13T19:34:43.583Z,69.80
2023-03-13T19:37:12.229Z,69.90
2023-03-13T19:39:39.926Z,69.90
2023-03-13T19:42:08.093Z,69.90
2023-03-13T19:44:36.980Z,69.90
2023-03-13T19:47:06.356Z,69.80
2023-03-13T19:49:34.480Z,69.80
2023-03-13T19:52:02.372Z,69.90
2023-03-13T19:54:30.087Z,69.90
2023-03-13T19:56:58.522Z,69.90
2023-03-13T19:59:27.601Z,69.90
2023-03-13T20:01:56.323Z,69.90
2023-03-13T20:04:25.575Z,69.80
2023-03-13T20:06:53.298Z,70.20
2023-03-13T20:09:21.343Z,70.80
2023-03-13T20:11:49.055Z,71.30
2023-03-13T20:14:16.812Z,71.70
2023-03-13T20:16:46.401Z,71.90
2023-03-13T20:19:14.096Z,72.20
2023-03-13T20:21:43.141Z,72.40
2023-03-13T20:24:11.557Z,72.50
2023-03-13T20:26:39.304Z,72.60
2023-03-13T20:29:07.053Z,72.60
2023-03-13T20:31:34.838Z,72.70
2023-03-13T20:34:02.613Z,72.70
2023-03-13T20:36:30.385Z,72.60
2023-03-13T20:38:59.435Z,72.70
2023-03-13T20:41:31.022Z,72.60
2023-03-13T20:43:58.801Z,72.60
2023-03-13T20:46:26.658Z,72.50
2023-03-13T20:48:54.444Z,72.50
2023-03-13T20:51:22.226Z,72.40
2023-03-13T20:53:49.947Z,72.40
2023-03-13T20:56:18.993Z,72.30
2023-03-13T20:58:46.718Z,72.20
2023-03-13T21:01:16.514Z,72.10
2023-03-13T21:03:46.010Z,72.00
2023-03-13T21:06:16.131Z,72.00
2023-03-13T21:08:45.477Z,71.90
2023-03-13T21:11:14.029Z,71.80
2023-03-13T21:13:43.200Z,71.80
2023-03-13T21:16:12.753Z,71.80
2023-03-13T21:18:41.051Z,71.70
2023-03-13T21:21:10.698Z,71.60
2023-03-13T21:23:38.984Z,71.60
2023-03-13T21:26:07.119Z,71.50
2023-03-13T21:28:34.970Z,71.40
2023-03-13T21:31:10.945Z,71.30
2023-03-13T21:33:39.061Z,71.30
2023-03-13T21:36:07.343Z,71.30
2023-03-13T21:38:35.117Z,71.20
2023-03-13T21:41:07.302Z,71.20
2023-03-13T21:43:35.375Z,71.10
2023-03-13T21:46:03.896Z,71.00
2023-03-13T21:48:32.950Z,71.00
2023-03-13T21:51:01.033Z,71.00
2023-03-13T21:53:28.709Z,71.00
2023-03-13T21:55:56.439Z,70.90
2023-03-13T21:58:24.115Z,70.80
2023-03-13T22:00:54.618Z,70.80
2023-03-13T22:03:22.803Z,70.70
2023-03-13T22:05:51.872Z,70.60
2023-03-13T22:08:19.711Z,70.60
2023-03-13T22:10:49.883Z,70.50
2023-03-13T22:13:18.081Z,70.40
2023-03-13T22:15:46.352Z,70.30
2023-03-13T22:18:14.265Z,70.30
2023-03-13T22:20:42.211Z,70.20
2023-03-13T22:23:12.193Z,70.20
2023-03-13T22:25:40.266Z,70.20
2023-03-13T22:28:08.337Z,70.20
2023-03-13T22:30:36.156Z,70.20
2023-03-13T22:33:06.681Z,70.20
2023-03-13T22:35:34.834Z,70.10
2023-03-13T22:38:02.878Z,70.10
2023-03-13T22:40:33.352Z,70.10
2023-03-13T22:43:01.154Z,70.10
2023-03-13T22:45:30.360Z,70.00
2023-03-13T22:47:58.091Z,69.90
2023-03-13T22:50:27.864Z,69.90
2023-03-13T22:52:55.567Z,69.80
2023-03-13T22:55:23.344Z,69.70
2023-03-13T22:57:52.345Z,69.70
2023-03-13T23:00:20.857Z,69.70
2023-03-13T23:02:49.499Z,69.70
2023-03-13T23:05:17.488Z,69.60
2023-03-13T23:07:45.266Z,69.50
2023-03-13T23:10:13.883Z,69.50
2023-03-13T23:12:41.608Z,69.40
2023-03-13T23:15:12.617Z,69.40
2023-03-13T23:17:40.330Z,69.40
2023-03-13T23:20:13.329Z,69.40
2023-03-13T23:22:42.229Z,69.30
2023-03-13T23:25:11.444Z,69.30
2023-03-13T23:27:39.167Z,69.30
2023-03-13T23:30:10.948Z,69.30
2023-03-13T23:32:39.936Z,69.20
2023-03-13T23:35:08.971Z,69.20
2023-03-13T23:37:36.768Z,69.20
2023-03-13T23:40:08.191Z,69.10
2023-03-13T23:42:36.372Z,69.10
2023-03-13T23:45:05.571Z,69.10
2023-03-13T23:47:34.821Z,69.00
2023-03-13T23:50:02.796Z,69.80
2023-03-13T23:52:30.521Z,69.00
2023-03-13T23:54:58.238Z,69.00
2023-03-13T23:57:26.003Z,68.90
2023-03-13T23:59:54.100Z,68.90
